sensor_id;sensor_type;location;lat;lon;timestamp;temperature;humidity
47813;DHT22;34221;45.296;9.516;2022-08-20T00:00:12;23.30;98.10
47813;DHT22;34221;45.296;9.516;2022-08-20T00:00:32;23.40;98.00
47813;DHT22;34221;45.296;9.516;2022-08-20T00:00:53;23.30;97.90
47813;DHT22;34221;45.296;9.516;2022-08-20T00:01:09;23.40;97.80
47813;DHT22;34221;45.296;9.516;2022-08-20T00:01:24;23.40;97.80
47813;DHT22;34221;45.296;9.516;2022-08-20T00:01:39;23.30;97.90
47813;DHT22;34221;45.296;9.516;2022-08-20T00:01:54;23.30;98.00
47813;DHT22;34221;45.296;9.516;2022-08-20T00:02:10;23.30;97.90
47813;DHT22;34221;45.296;9.516;2022-08-20T00:02:25;23.40;97.80
47813;DHT22;34221;45.296;9.516;2022-08-20T00:02:42;23.30;98.00
47813;DHT22;34221;45.296;9.516;2022-08-20T00:03:06;23.30;97.80
47813;DHT22;34221;45.296;9.516;2022-08-20T00:03:39;23.30;97.70
47813;DHT22;34221;45.296;9.516;2022-08-20T00:03:54;23.40;98.10
47813;DHT22;34221;45.296;9.516;2022-08-20T00:04:09;23.40;97.90
47813;DHT22;34221;45.296;9.516;2022-08-20T00:04:25;23.40;97.80
47813;DHT22;34221;45.296;9.516;2022-08-20T00:04:39;23.40;97.90
47813;DHT22;34221;45.296;9.516;2022-08-20T00:04:54;23.40;98.30
47813;DHT22;34221;45.296;9.516;2022-08-20T00:05:10;23.40;98.10
47813;DHT22;34221;45.296;9.516;2022-08-20T00:05:32;23.40;98.50
47813;DHT22;34221;45.296;9.516;2022-08-20T00:05:54;23.40;98.20
47813;DHT22;34221;45.296;9.516;2022-08-20T00:06:24;23.40;98.10
47813;DHT22;34221;45.296;9.516;2022-08-20T00:06:39;23.40;97.50
47813;DHT22;34221;45.296;9.516;2022-08-20T00:06:54;23.40;97.90
47813;DHT22;34221;45.296;9.516;2022-08-20T00:07:10;23.50;98.60
47813;DHT22;34221;45.296;9.516;2022-08-20T00:07:25;23.40;98.20
47813;DHT22;34221;45.296;9.516;2022-08-20T00:07:40;23.40;97.60
47813;DHT22;34221;45.296;9.516;2022-08-20T00:07:55;23.40;97.20
47813;DHT22;34221;45.296;9.516;2022-08-20T00:08:10;23.40;98.30
47813;DHT22;34221;45.296;9.516;2022-08-20T00:08:26;23.40;98.00
47813;DHT22;34221;45.296;9.516;2022-08-20T00:08:43;23.40;97.30
47813;DHT22;34221;45.296;9.516;2022-08-20T00:08:59;23.40;97.40
47813;DHT22;34221;45.296;9.516;2022-08-20T00:09:14;23.40;98.10
47813;DHT22;34221;45.296;9.516;2022-08-20T00:09:28;23.40;97.40
47813;DHT22;34221;45.296;9.516;2022-08-20T00:09:44;23.40;97.30
47813;DHT22;34221;45.296;9.516;2022-08-20T00:09:59;23.40;97.40
47813;DHT22;34221;45.296;9.516;2022-08-20T00:10:14;23.40;97.20
47813;DHT22;34221;45.296;9.516;2022-08-20T00:10:32;23.40;97.70
47813;DHT22;34221;45.296;9.516;2022-08-20T00:10:50;23.40;97.50
47813;DHT22;34221;45.296;9.516;2022-08-20T00:11:08;23.40;97.10
47813;DHT22;34221;45.296;9.516;2022-08-20T00:11:26;23.40;97.40
47813;DHT22;34221;45.296;9.516;2022-08-20T00:11:41;23.40;97.40
47813;DHT22;34221;45.296;9.516;2022-08-20T00:11:56;23.40;97.30
47813;DHT22;34221;45.296;9.516;2022-08-20T00:12:15;23.40;97.50
47813;DHT22;34221;45.296;9.516;2022-08-20T00:12:30;23.40;97.70
47813;DHT22;34221;45.296;9.516;2022-08-20T00:12:47;23.40;97.50
47813;DHT22;34221;45.296;9.516;2022-08-20T00:13:05;23.40;97.60
47813;DHT22;34221;45.296;9.516;2022-08-20T00:13:25;23.40;97.60
47813;DHT22;34221;45.296;9.516;2022-08-20T00:13:48;23.40;97.60
47813;DHT22;34221;45.296;9.516;2022-08-20T00:14:06;23.40;97.60
47813;DHT22;34221;45.296;9.516;2022-08-20T00:14:21;23.40;97.40
47813;DHT22;34221;45.296;9.516;2022-08-20T00:14:36;23.40;97.70
47813;DHT22;34221;45.296;9.516;2022-08-20T00:14:52;23.40;97.70
47813;DHT22;34221;45.296;9.516;2022-08-20T00:15:07;23.40;97.50
47813;DHT22;34221;45.296;9.516;2022-08-20T00:15:26;23.50;97.60
47813;DHT22;34221;45.296;9.516;2022-08-20T00:15:44;23.50;97.70
47813;DHT22;34221;45.296;9.516;2022-08-20T00:15:59;23.50;97.70
47813;DHT22;34221;45.296;9.516;2022-08-20T00:16:16;23.50;98.00
47813;DHT22;34221;45.296;9.516;2022-08-20T00:16:34;23.50;97.60
47813;DHT22;34221;45.296;9.516;2022-08-20T00:16:50;23.50;98.10
47813;DHT22;34221;45.296;9.516;2022-08-20T00:17:05;23.50;98.00
47813;DHT22;34221;45.296;9.516;2022-08-20T00:17:20;23.50;97.90
47813;DHT22;34221;45.296;9.516;2022-08-20T00:17:35;23.50;98.30
47813;DHT22;34221;45.296;9.516;2022-08-20T00:17:51;23.50;97.50
47813;DHT22;34221;45.296;9.516;2022-08-20T00:18:07;23.50;97.60
47813;DHT22;34221;45.296;9.516;2022-08-20T00:18:23;23.50;98.40
47813;DHT22;34221;45.296;9.516;2022-08-20T00:18:38;23.50;97.40
47813;DHT22;34221;45.296;9.516;2022-08-20T00:18:54;23.50;97.30
47813;DHT22;34221;45.296;9.516;2022-08-20T00:19:09;23.50;97.50
47813;DHT22;34221;45.296;9.516;2022-08-20T00:19:24;23.50;97.40
47813;DHT22;34221;45.296;9.516;2022-08-20T00:19:39;23.50;97.30
47813;DHT22;34221;45.296;9.516;2022-08-20T00:19:54;23.50;97.60
47813;DHT22;34221;45.296;9.516;2022-08-20T00:20:11;23.50;97.50
47813;DHT22;34221;45.296;9.516;2022-08-20T00:20:30;23.50;97.20
47813;DHT22;34221;45.296;9.516;2022-08-20T00:20:48;23.50;97.20
47813;DHT22;34221;45.296;9.516;2022-08-20T00:21:07;23.50;97.50
47813;DHT22;34221;45.296;9.516;2022-08-20T00:21:24;23.50;97.40
47813;DHT22;34221;45.296;9.516;2022-08-20T00:21:39;23.50;97.50
47813;DHT22;34221;45.296;9.516;2022-08-20T00:21:55;23.50;97.60
47813;DHT22;34221;45.296;9.516;2022-08-20T00:22:10;23.50;97.20
47813;DHT22;34221;45.296;9.516;2022-08-20T00:22:25;23.50;97.10
47813;DHT22;34221;45.296;9.516;2022-08-20T00:22:41;23.50;97.30
47813;DHT22;34221;45.296;9.516;2022-08-20T00:22:57;23.50;97.30
47813;DHT22;34221;45.296;9.516;2022-08-20T00:23:12;23.50;97.30
47813;DHT22;34221;45.296;9.516;2022-08-20T00:23:27;23.40;97.40
47813;DHT22;34221;45.296;9.516;2022-08-20T00:23:45;23.40;97.40
47813;DHT22;34221;45.296;9.516;2022-08-20T00:24:02;23.50;97.40
47813;DHT22;34221;45.296;9.516;2022-08-20T00:24:17;23.40;97.70
47813;DHT22;34221;45.296;9.516;2022-08-20T00:24:32;23.40;97.50
47813;DHT22;34221;45.296;9.516;2022-08-20T00:24:48;23.40;97.60
47813;DHT22;34221;45.296;9.516;2022-08-20T00:25:05;23.40;97.80
47813;DHT22;34221;45.296;9.516;2022-08-20T00:25:22;23.40;97.80
47813;DHT22;34221;45.296;9.516;2022-08-20T00:25:38;23.40;98.30
47813;DHT22;34221;45.296;9.516;2022-08-20T00:25:54;23.40;97.90
47813;DHT22;34221;45.296;9.516;2022-08-20T00:26:10;23.40;97.80
47813;DHT22;34221;45.296;9.516;2022-08-20T00:26:26;23.40;98.10
47813;DHT22;34221;45.296;9.516;2022-08-20T00:26:41;23.40;98.10
47813;DHT22;34221;45.296;9.516;2022-08-20T00:26:56;23.40;98.30
47813;DHT22;34221;45.296;9.516;2022-08-20T00:27:11;23.40;98.40
47813;DHT22;34221;45.296;9.516;2022-08-20T00:27:26;23.40;98.40
47813;DHT22;34221;45.296;9.516;2022-08-20T00:27:41;23.40;98.00
47813;DHT22;34221;45.296;9.516;2022-08-20T00:27:57;23.30;98.10
47813;DHT22;34221;45.296;9.516;2022-08-20T00:28:13;23.30;98.40
47813;DHT22;34221;45.296;9.516;2022-08-20T00:28:28;23.30;98.50
47813;DHT22;34221;45.296;9.516;2022-08-20T00:28:43;23.30;98.30
47813;DHT22;34221;45.296;9.516;2022-08-20T00:28:58;23.30;98.30
47813;DHT22;34221;45.296;9.516;2022-08-20T00:29:13;23.30;98.50
47813;DHT22;34221;45.296;9.516;2022-08-20T00:29:29;23.30;98.30
47813;DHT22;34221;45.296;9.516;2022-08-20T00:29:45;23.30;98.60
47813;DHT22;34221;45.296;9.516;2022-08-20T00:30:00;23.30;98.70
47813;DHT22;34221;45.296;9.516;2022-08-20T00:30:16;23.30;98.40
47813;DHT22;34221;45.296;9.516;2022-08-20T00:30:31;23.30;98.50
47813;DHT22;34221;45.296;9.516;2022-08-20T00:30:48;23.30;98.70
47813;DHT22;34221;45.296;9.516;2022-08-20T00:31:05;23.30;98.50
47813;DHT22;34221;45.296;9.516;2022-08-20T00:31:22;23.30;98.60
47813;DHT22;34221;45.296;9.516;2022-08-20T00:31:37;23.30;98.50
47813;DHT22;34221;45.296;9.516;2022-08-20T00:31:52;23.20;98.80
47813;DHT22;34221;45.296;9.516;2022-08-20T00:32:07;23.20;99.10
47813;DHT22;34221;45.296;9.516;2022-08-20T00:32:22;23.30;98.90
47813;DHT22;34221;45.296;9.516;2022-08-20T00:32:54;23.20;99.10
47813;DHT22;34221;45.296;9.516;2022-08-20T00:33:15;23.20;99.20
47813;DHT22;34221;45.296;9.516;2022-08-20T00:33:32;23.20;99.00
47813;DHT22;34221;45.296;9.516;2022-08-20T00:33:48;23.20;99.30
47813;DHT22;34221;45.296;9.516;2022-08-20T00:34:03;23.20;99.30
47813;DHT22;34221;45.296;9.516;2022-08-20T00:34:18;23.20;99.20
47813;DHT22;34221;45.296;9.516;2022-08-20T00:34:33;23.20;99.20
47813;DHT22;34221;45.296;9.516;2022-08-20T00:34:48;23.10;99.20
47813;DHT22;34221;45.296;9.516;2022-08-20T00:35:03;23.20;99.20
47813;DHT22;34221;45.296;9.516;2022-08-20T00:35:21;23.20;99.40
47813;DHT22;34221;45.296;9.516;2022-08-20T00:35:41;23.10;99.40
47813;DHT22;34221;45.296;9.516;2022-08-20T00:35:57;23.10;99.20
47813;DHT22;34221;45.296;9.516;2022-08-20T00:36:21;23.10;99.40
47813;DHT22;34221;45.296;9.516;2022-08-20T00:36:36;23.10;99.50
47813;DHT22;34221;45.296;9.516;2022-08-20T00:36:51;23.10;99.40
47813;DHT22;34221;45.296;9.516;2022-08-20T00:37:06;23.10;99.40
47813;DHT22;34221;45.296;9.516;2022-08-20T00:37:22;23.10;99.50
47813;DHT22;34221;45.296;9.516;2022-08-20T00:37:37;23.10;99.80
47813;DHT22;34221;45.296;9.516;2022-08-20T00:37:52;23.00;99.70
47813;DHT22;34221;45.296;9.516;2022-08-20T00:38:07;23.10;99.90
47813;DHT22;34221;45.296;9.516;2022-08-20T00:38:25;23.10;99.90
47813;DHT22;34221;45.296;9.516;2022-08-20T00:38:41;23.10;99.90
47813;DHT22;34221;45.296;9.516;2022-08-20T00:38:57;23.10;99.70
47813;DHT22;34221;45.296;9.516;2022-08-20T00:39:12;23.10;99.80
47813;DHT22;34221;45.296;9.516;2022-08-20T00:39:27;23.10;99.80
47813;DHT22;34221;45.296;9.516;2022-08-20T00:39:42;23.00;99.70
47813;DHT22;34221;45.296;9.516;2022-08-20T00:39:57;23.00;99.80
47813;DHT22;34221;45.296;9.516;2022-08-20T00:40:15;23.00;99.80
47813;DHT22;34221;45.296;9.516;2022-08-20T00:40:39;23.00;99.90
47813;DHT22;34221;45.296;9.516;2022-08-20T00:41:00;23.00;99.90
47813;DHT22;34221;45.296;9.516;2022-08-20T00:41:21;23.00;99.90
47813;DHT22;34221;45.296;9.516;2022-08-20T00:41:38;23.00;99.90
47813;DHT22;34221;45.296;9.516;2022-08-20T00:41:53;23.00;99.90
47813;DHT22;34221;45.296;9.516;2022-08-20T00:42:08;23.00;99.90
47813;DHT22;34221;45.296;9.516;2022-08-20T00:42:24;23.00;99.90
47813;DHT22;34221;45.296;9.516;2022-08-20T00:42:48;23.00;99.90
47813;DHT22;34221;45.296;9.516;2022-08-20T00:43:22;23.00;99.90
47813;DHT22;34221;45.296;9.516;2022-08-20T00:43:45;23.00;99.90
47813;DHT22;34221;45.296;9.516;2022-08-20T00:44:13;23.00;99.90
47813;DHT22;34221;45.296;9.516;2022-08-20T00:44:33;23.00;99.90
47813;DHT22;34221;45.296;9.516;2022-08-20T00:44:49;22.90;99.90
47813;DHT22;34221;45.296;9.516;2022-08-20T00:45:05;23.00;99.90
47813;DHT22;34221;45.296;9.516;2022-08-20T00:45:20;22.90;99.90
47813;DHT22;34221;45.296;9.516;2022-08-20T00:45:35;22.90;99.90
47813;DHT22;34221;45.296;9.516;2022-08-20T00:45:50;22.90;99.90
47813;DHT22;34221;45.296;9.516;2022-08-20T00:46:17;22.90;99.90
47813;DHT22;34221;45.296;9.516;2022-08-20T00:46:35;22.90;99.90
47813;DHT22;34221;45.296;9.516;2022-08-20T00:46:51;22.90;99.90
47813;DHT22;34221;45.296;9.516;2022-08-20T00:47:07;22.90;99.90
47813;DHT22;34221;45.296;9.516;2022-08-20T00:47:22;22.90;99.90
47813;DHT22;34221;45.296;9.516;2022-08-20T00:47:38;22.90;99.90
47813;DHT22;34221;45.296;9.516;2022-08-20T00:48:00;22.90;99.90
47813;DHT22;34221;45.296;9.516;2022-08-20T00:48:15;22.90;99.90
47813;DHT22;34221;45.296;9.516;2022-08-20T00:48:33;22.90;99.90
47813;DHT22;34221;45.296;9.516;2022-08-20T00:48:51;22.90;99.90
47813;DHT22;34221;45.296;9.516;2022-08-20T00:49:13;22.90;99.90
47813;DHT22;34221;45.296;9.516;2022-08-20T00:49:31;22.90;99.90
47813;DHT22;34221;45.296;9.516;2022-08-20T00:49:46;22.90;99.90
47813;DHT22;34221;45.296;9.516;2022-08-20T00:50:01;22.90;99.90
47813;DHT22;34221;45.296;9.516;2022-08-20T00:50:39;22.90;99.90
47813;DHT22;34221;45.296;9.516;2022-08-20T00:51:01;22.90;99.90
47813;DHT22;34221;45.296;9.516;2022-08-20T00:51:39;22.90;99.90
47813;DHT22;34221;45.296;9.516;2022-08-20T00:52:01;22.90;99.90
47813;DHT22;34221;45.296;9.516;2022-08-20T00:52:18;22.90;99.90
47813;DHT22;34221;45.296;9.516;2022-08-20T00:52:35;22.90;99.90
47813;DHT22;34221;45.296;9.516;2022-08-20T00:52:52;22.80;99.90
47813;DHT22;34221;45.296;9.516;2022-08-20T00:53:07;22.80;99.90
47813;DHT22;34221;45.296;9.516;2022-08-20T00:53:24;22.80;99.90
47813;DHT22;34221;45.296;9.516;2022-08-20T00:53:41;22.80;99.90
47813;DHT22;34221;45.296;9.516;2022-08-20T00:54:03;22.80;99.90
47813;DHT22;34221;45.296;9.516;2022-08-20T00:54:25;22.80;99.90
47813;DHT22;34221;45.296;9.516;2022-08-20T00:55:02;22.80;99.90
47813;DHT22;34221;45.296;9.516;2022-08-20T00:55:20;22.80;99.90
47813;DHT22;34221;45.296;9.516;2022-08-20T00:55:37;22.80;99.90
47813;DHT22;34221;45.296;9.516;2022-08-20T00:55:53;22.80;99.90
47813;DHT22;34221;45.296;9.516;2022-08-20T00:56:10;22.80;99.90
47813;DHT22;34221;45.296;9.516;2022-08-20T00:56:25;22.80;99.90
47813;DHT22;34221;45.296;9.516;2022-08-20T00:56:43;22.80;99.90
47813;DHT22;34221;45.296;9.516;2022-08-20T00:57:06;22.80;99.90
47813;DHT22;34221;45.296;9.516;2022-08-20T00:57:37;22.80;99.90
47813;DHT22;34221;45.296;9.516;2022-08-20T00:57:58;22.80;99.90
47813;DHT22;34221;45.296;9.516;2022-08-20T00:58:16;22.80;99.90
47813;DHT22;34221;45.296;9.516;2022-08-20T00:58:32;22.80;99.90
47813;DHT22;34221;45.296;9.516;2022-08-20T00:58:49;22.80;99.90
47813;DHT22;34221;45.296;9.516;2022-08-20T00:59:09;22.80;99.90
47813;DHT22;34221;45.296;9.516;2022-08-20T00:59:29;22.80;99.90
47813;DHT22;34221;45.296;9.516;2022-08-20T00:59:46;22.80;99.90
47813;DHT22;34221;45.296;9.516;2022-08-20T01:00:08;22.80;99.90
47813;DHT22;34221;45.296;9.516;2022-08-20T01:00:42;22.80;99.90
47813;DHT22;34221;45.296;9.516;2022-08-20T01:00:59;22.80;99.90
47813;DHT22;34221;45.296;9.516;2022-08-20T01:01:15;22.90;99.90
47813;DHT22;34221;45.296;9.516;2022-08-20T01:01:31;22.80;99.90
47813;DHT22;34221;45.296;9.516;2022-08-20T01:01:48;22.80;99.90
47813;DHT22;34221;45.296;9.516;2022-08-20T01:02:07;22.80;99.90
47813;DHT22;34221;45.296;9.516;2022-08-20T01:02:26;22.80;99.90
47813;DHT22;34221;45.296;9.516;2022-08-20T01:02:44;22.80;99.90
47813;DHT22;34221;45.296;9.516;2022-08-20T01:03:00;22.80;99.90
47813;DHT22;34221;45.296;9.516;2022-08-20T01:03:17;22.80;99.90
47813;DHT22;34221;45.296;9.516;2022-08-20T01:03:37;22.80;99.90
47813;DHT22;34221;45.296;9.516;2022-08-20T01:03:53;22.80;99.90
47813;DHT22;34221;45.296;9.516;2022-08-20T01:04:11;22.80;99.90
47813;DHT22;34221;45.296;9.516;2022-08-20T01:04:29;22.80;99.90
47813;DHT22;34221;45.296;9.516;2022-08-20T01:04:47;22.80;99.90
47813;DHT22;34221;45.296;9.516;2022-08-20T01:05:11;22.80;99.90
47813;DHT22;34221;45.296;9.516;2022-08-20T01:05:28;22.80;99.90
47813;DHT22;34221;45.296;9.516;2022-08-20T01:05:45;22.80;99.90
47813;DHT22;34221;45.296;9.516;2022-08-20T01:06:02;22.70;99.90
47813;DHT22;34221;45.296;9.516;2022-08-20T01:06:17;22.70;99.90
47813;DHT22;34221;45.296;9.516;2022-08-20T01:06:32;22.60;99.90
47813;DHT22;34221;45.296;9.516;2022-08-20T01:06:46;22.70;99.90
47813;DHT22;34221;45.296;9.516;2022-08-20T01:07:04;22.60;99.90
47813;DHT22;34221;45.296;9.516;2022-08-20T01:07:22;22.70;99.90
47813;DHT22;34221;45.296;9.516;2022-08-20T01:07:45;22.70;99.90
47813;DHT22;34221;45.296;9.516;2022-08-20T01:08:02;22.70;99.90
47813;DHT22;34221;45.296;9.516;2022-08-20T01:08:20;22.70;99.90
47813;DHT22;34221;45.296;9.516;2022-08-20T01:08:38;22.70;99.90
47813;DHT22;34221;45.296;9.516;2022-08-20T01:08:54;22.70;99.90
47813;DHT22;34221;45.296;9.516;2022-08-20T01:09:10;22.70;99.90
47813;DHT22;34221;45.296;9.516;2022-08-20T01:09:25;22.70;99.90
47813;DHT22;34221;45.296;9.516;2022-08-20T01:09:40;22.70;99.90
47813;DHT22;34221;45.296;9.516;2022-08-20T01:10:18;22.70;99.90
47813;DHT22;34221;45.296;9.516;2022-08-20T01:10:38;22.70;99.90
47813;DHT22;34221;45.296;9.516;2022-08-20T01:10:55;22.70;99.90
47813;DHT22;34221;45.296;9.516;2022-08-20T01:11:28;22.70;99.90
47813;DHT22;34221;45.296;9.516;2022-08-20T01:11:47;22.70;99.90
47813;DHT22;34221;45.296;9.516;2022-08-20T01:12:02;22.80;99.90
47813;DHT22;34221;45.296;9.516;2022-08-20T01:12:19;22.70;99.90
47813;DHT22;34221;45.296;9.516;2022-08-20T01:12:34;22.70;99.90
47813;DHT22;34221;45.296;9.516;2022-08-20T01:12:52;22.70;99.90
47813;DHT22;34221;45.296;9.516;2022-08-20T01:13:14;22.70;99.90
47813;DHT22;34221;45.296;9.516;2022-08-20T01:13:38;22.70;99.90
47813;DHT22;34221;45.296;9.516;2022-08-20T01:13:54;22.70;99.90
47813;DHT22;34221;45.296;9.516;2022-08-20T01:14:12;22.70;99.90
47813;DHT22;34221;45.296;9.516;2022-08-20T01:14:41;22.70;99.90
47813;DHT22;34221;45.296;9.516;2022-08-20T01:15:02;22.80;99.90
47813;DHT22;34221;45.296;9.516;2022-08-20T01:15:20;22.70;99.90
47813;DHT22;34221;45.296;9.516;2022-08-20T01:15:39;22.60;99.90
47813;DHT22;34221;45.296;9.516;2022-08-20T01:15:56;22.50;99.90
47813;DHT22;34221;45.296;9.516;2022-08-20T01:16:17;22.30;99.90
47813;DHT22;34221;45.296;9.516;2022-08-20T01:16:36;22.20;99.90
47813;DHT22;34221;45.296;9.516;2022-08-20T01:16:55;22.20;99.90
47813;DHT22;34221;45.296;9.516;2022-08-20T01:17:17;22.10;99.90
47813;DHT22;34221;45.296;9.516;2022-08-20T01:17:35;22.10;99.90
47813;DHT22;34221;45.296;9.516;2022-08-20T01:17:57;22.10;99.90
47813;DHT22;34221;45.296;9.516;2022-08-20T01:18:18;22.00;99.90
47813;DHT22;34221;45.296;9.516;2022-08-20T01:18:38;21.90;99.90
47813;DHT22;34221;45.296;9.516;2022-08-20T01:18:54;21.80;99.90
47813;DHT22;34221;45.296;9.516;2022-08-20T01:19:12;21.80;99.90
47813;DHT22;34221;45.296;9.516;2022-08-20T01:19:32;21.70;99.90
47813;DHT22;34221;45.296;9.516;2022-08-20T01:20:07;21.70;99.90
47813;DHT22;34221;45.296;9.516;2022-08-20T01:20:29;21.70;99.90
47813;DHT22;34221;45.296;9.516;2022-08-20T01:20:50;21.60;99.90
47813;DHT22;34221;45.296;9.516;2022-08-20T01:21:08;21.70;99.90
47813;DHT22;34221;45.296;9.516;2022-08-20T01:21:25;21.60;99.90
47813;DHT22;34221;45.296;9.516;2022-08-20T01:21:42;21.60;99.90
47813;DHT22;34221;45.296;9.516;2022-08-20T01:21:59;21.60;99.90
47813;DHT22;34221;45.296;9.516;2022-08-20T01:22:31;21.50;99.90
47813;DHT22;34221;45.296;9.516;2022-08-20T01:23:53;21.50;99.90
47813;DHT22;34221;45.296;9.516;2022-08-20T01:24:21;21.60;99.90
47813;DHT22;34221;45.296;9.516;2022-08-20T01:24:43;21.70;99.90
47813;DHT22;34221;45.296;9.516;2022-08-20T01:25:05;21.70;99.90
47813;DHT22;34221;45.296;9.516;2022-08-20T01:25:51;21.70;99.90
47813;DHT22;34221;45.296;9.516;2022-08-20T01:26:24;21.70;99.90
47813;DHT22;34221;45.296;9.516;2022-08-20T01:26:43;21.80;99.90
47813;DHT22;34221;45.296;9.516;2022-08-20T01:27:00;21.80;99.90
47813;DHT22;34221;45.296;9.516;2022-08-20T01:27:17;21.80;99.90
47813;DHT22;34221;45.296;9.516;2022-08-20T01:27:34;21.80;99.90
47813;DHT22;34221;45.296;9.516;2022-08-20T01:27:50;21.80;99.90
47813;DHT22;34221;45.296;9.516;2022-08-20T01:28:07;21.90;99.90
47813;DHT22;34221;45.296;9.516;2022-08-20T01:28:27;21.90;99.90
47813;DHT22;34221;45.296;9.516;2022-08-20T01:28:59;21.90;99.90
47813;DHT22;34221;45.296;9.516;2022-08-20T01:29:23;21.90;99.90
47813;DHT22;34221;45.296;9.516;2022-08-20T01:29:39;21.90;99.90
47813;DHT22;34221;45.296;9.516;2022-08-20T01:29:54;21.80;99.90
47813;DHT22;34221;45.296;9.516;2022-08-20T01:30:10;21.80;99.90
47813;DHT22;34221;45.296;9.516;2022-08-20T01:30:26;21.90;99.90
47813;DHT22;34221;45.296;9.516;2022-08-20T01:30:42;21.80;99.90
47813;DHT22;34221;45.296;9.516;2022-08-20T01:30:57;21.80;99.90
47813;DHT22;34221;45.296;9.516;2022-08-20T01:31:17;21.90;99.90
47813;DHT22;34221;45.296;9.516;2022-08-20T01:31:38;21.80;99.90
47813;DHT22;34221;45.296;9.516;2022-08-20T01:31:54;21.80;99.90
47813;DHT22;34221;45.296;9.516;2022-08-20T01:32:14;21.80;99.90
47813;DHT22;34221;45.296;9.516;2022-08-20T01:32:29;21.80;99.90
47813;DHT22;34221;45.296;9.516;2022-08-20T01:32:44;21.80;99.90
47813;DHT22;34221;45.296;9.516;2022-08-20T01:32:59;21.80;99.90
47813;DHT22;34221;45.296;9.516;2022-08-20T01:33:17;21.80;99.90
47813;DHT22;34221;45.296;9.516;2022-08-20T01:33:33;21.80;99.90
47813;DHT22;34221;45.296;9.516;2022-08-20T01:33:50;21.80;99.90
47813;DHT22;34221;45.296;9.516;2022-08-20T01:34:10;21.80;99.90
47813;DHT22;34221;45.296;9.516;2022-08-20T01:34:28;21.80;99.90
47813;DHT22;34221;45.296;9.516;2022-08-20T01:34:43;21.80;99.90
47813;DHT22;34221;45.296;9.516;2022-08-20T01:34:58;21.80;99.90
47813;DHT22;34221;45.296;9.516;2022-08-20T01:35:19;21.80;99.90
47813;DHT22;34221;45.296;9.516;2022-08-20T01:35:38;21.80;99.90
47813;DHT22;34221;45.296;9.516;2022-08-20T01:35:54;21.70;99.90
47813;DHT22;34221;45.296;9.516;2022-08-20T01:36:11;21.70;99.90
47813;DHT22;34221;45.296;9.516;2022-08-20T01:36:40;21.70;99.90
47813;DHT22;34221;45.296;9.516;2022-08-20T01:37:05;21.70;99.90
47813;DHT22;34221;45.296;9.516;2022-08-20T01:37:20;21.60;99.90
47813;DHT22;34221;45.296;9.516;2022-08-20T01:37:35;21.60;99.90
47813;DHT22;34221;45.296;9.516;2022-08-20T01:37:50;21.60;99.90
47813;DHT22;34221;45.296;9.516;2022-08-20T01:38:06;21.60;99.90
47813;DHT22;34221;45.296;9.516;2022-08-20T01:38:22;21.60;99.90
47813;DHT22;34221;45.296;9.516;2022-08-20T01:38:39;21.60;99.90
47813;DHT22;34221;45.296;9.516;2022-08-20T01:38:57;21.60;99.90
47813;DHT22;34221;45.296;9.516;2022-08-20T01:39:17;21.60;99.90
47813;DHT22;34221;45.296;9.516;2022-08-20T01:39:35;21.70;99.90
47813;DHT22;34221;45.296;9.516;2022-08-20T01:39:51;21.70;99.90
47813;DHT22;34221;45.296;9.516;2022-08-20T01:40:09;21.70;99.90
47813;DHT22;34221;45.296;9.516;2022-08-20T01:40:49;21.70;99.90
47813;DHT22;34221;45.296;9.516;2022-08-20T01:41:46;21.70;99.90
47813;DHT22;34221;45.296;9.516;2022-08-20T01:42:28;21.80;99.90
47813;DHT22;34221;45.296;9.516;2022-08-20T01:42:47;21.80;99.90
47813;DHT22;34221;45.296;9.516;2022-08-20T01:43:04;21.80;99.90
47813;DHT22;34221;45.296;9.516;2022-08-20T01:43:20;21.80;99.90
47813;DHT22;34221;45.296;9.516;2022-08-20T01:43:36;21.80;99.90
47813;DHT22;34221;45.296;9.516;2022-08-20T01:43:52;21.90;99.90
47813;DHT22;34221;45.296;9.516;2022-08-20T01:44:12;21.80;99.90
47813;DHT22;34221;45.296;9.516;2022-08-20T01:44:28;21.90;99.90
47813;DHT22;34221;45.296;9.516;2022-08-20T01:44:45;21.80;99.90
47813;DHT22;34221;45.296;9.516;2022-08-20T01:45:01;21.80;99.90
47813;DHT22;34221;45.296;9.516;2022-08-20T01:45:16;21.90;99.90
47813;DHT22;34221;45.296;9.516;2022-08-20T01:45:31;21.80;99.90
47813;DHT22;34221;45.296;9.516;2022-08-20T01:45:46;21.80;99.90
47813;DHT22;34221;45.296;9.516;2022-08-20T01:46:01;21.70;99.90
47813;DHT22;34221;45.296;9.516;2022-08-20T01:46:16;21.60;99.90
47813;DHT22;34221;45.296;9.516;2022-08-20T01:46:35;21.60;99.90
47813;DHT22;34221;45.296;9.516;2022-08-20T01:46:52;21.50;99.90
47813;DHT22;34221;45.296;9.516;2022-08-20T01:47:26;21.50;99.90
47813;DHT22;34221;45.296;9.516;2022-08-20T01:47:42;21.50;99.90
47813;DHT22;34221;45.296;9.516;2022-08-20T01:47:57;21.60;99.90
47813;DHT22;34221;45.296;9.516;2022-08-20T01:48:14;21.60;99.90
47813;DHT22;34221;45.296;9.516;2022-08-20T01:48:29;21.60;99.90
47813;DHT22;34221;45.296;9.516;2022-08-20T01:48:44;21.60;99.90
47813;DHT22;34221;45.296;9.516;2022-08-20T01:49:11;21.60;99.90
47813;DHT22;34221;45.296;9.516;2022-08-20T01:49:30;21.60;99.90
47813;DHT22;34221;45.296;9.516;2022-08-20T01:49:57;21.60;99.90
47813;DHT22;34221;45.296;9.516;2022-08-20T01:50:19;21.70;99.90
47813;DHT22;34221;45.296;9.516;2022-08-20T01:50:40;21.60;99.90
47813;DHT22;34221;45.296;9.516;2022-08-20T01:51:07;21.60;99.90
47813;DHT22;34221;45.296;9.516;2022-08-20T01:51:31;21.60;99.90
47813;DHT22;34221;45.296;9.516;2022-08-20T01:51:47;21.70;99.90
47813;DHT22;34221;45.296;9.516;2022-08-20T01:52:06;21.70;99.90
47813;DHT22;34221;45.296;9.516;2022-08-20T01:52:36;21.70;99.90
47813;DHT22;34221;45.296;9.516;2022-08-20T01:53:17;21.70;99.90
47813;DHT22;34221;45.296;9.516;2022-08-20T01:53:41;21.70;99.90
47813;DHT22;34221;45.296;9.516;2022-08-20T01:53:58;21.70;99.90
47813;DHT22;34221;45.296;9.516;2022-08-20T01:54:13;21.80;99.90
47813;DHT22;34221;45.296;9.516;2022-08-20T01:54:31;21.80;99.90
47813;DHT22;34221;45.296;9.516;2022-08-20T01:54:47;21.80;99.90
47813;DHT22;34221;45.296;9.516;2022-08-20T01:55:04;21.80;99.90
47813;DHT22;34221;45.296;9.516;2022-08-20T01:55:19;21.80;99.90
47813;DHT22;34221;45.296;9.516;2022-08-20T01:55:36;21.80;99.90
47813;DHT22;34221;45.296;9.516;2022-08-20T01:55:51;21.80;99.90
47813;DHT22;34221;45.296;9.516;2022-08-20T01:56:09;21.80;99.90
47813;DHT22;34221;45.296;9.516;2022-08-20T01:56:30;21.80;99.90
47813;DHT22;34221;45.296;9.516;2022-08-20T01:57:00;21.80;99.90
47813;DHT22;34221;45.296;9.516;2022-08-20T01:57:19;21.80;99.90
47813;DHT22;34221;45.296;9.516;2022-08-20T01:57:36;21.80;99.90
47813;DHT22;34221;45.296;9.516;2022-08-20T01:57:51;21.80;99.90
47813;DHT22;34221;45.296;9.516;2022-08-20T01:58:07;21.80;99.90